createdAt,value
2019-02-11T00:02:21.547Z,1.17
2019-02-11T00:04:59.089Z,1.30
2019-02-11T00:07:36.619Z,0.80
2019-02-11T00:10:14.152Z,0.83
2019-02-11T00:12:51.675Z,2.00
2019-02-11T00:15:29.223Z,3.90
2019-02-11T00:18:06.749Z,2.00
2019-02-11T00:20:44.321Z,1.60
2019-02-11T00:23:21.840Z,7.83
2019-02-11T00:25:59.365Z,2.53
2019-02-11T00:28:36.891Z,4.70
2019-02-11T00:31:14.524Z,1.20
2019-02-11T00:33:52.078Z,0.10
2019-02-11T00:36:29.625Z,0.37
2019-02-11T00:39:07.776Z,0.30
2019-02-11T00:41:45.321Z,0.23
2019-02-11T00:44:22.841Z,0.20
2019-02-11T00:47:00.373Z,0.13
2019-02-11T00:49:37.963Z,0.20
2019-02-11T00:52:15.448Z,0.30
2019-02-11T00:54:52.989Z,0.10
2019-02-11T00:57:30.520Z,0.10
2019-02-11T01:00:09.418Z,0.33
2019-02-11T01:02:46.929Z,0.00
2019-02-11T01:05:24.484Z,0.10
2019-02-11T01:08:02.024Z,0.10
2019-02-11T01:10:39.558Z,0.00
2019-02-11T01:13:17.090Z,0.23
2019-02-11T01:15:54.642Z,0.10
2019-02-11T01:18:32.187Z,0.20
2019-02-11T01:21:09.711Z,0.20
2019-02-11T01:23:47.242Z,0.20
2019-02-11T01:26:24.781Z,0.27
2019-02-11T01:29:02.299Z,0.10
2019-02-11T01:31:39.841Z,0.13
2019-02-11T01:34:17.377Z,0.20
2019-02-11T01:36:54.914Z,0.10
2019-02-11T01:39:32.424Z,0.10
2019-02-11T01:42:09.978Z,0.47
2019-02-11T01:44:47.514Z,0.37
2019-02-11T01:47:25.060Z,0.30
2019-02-11T01:50:02.581Z,0.20
2019-02-11T01:52:40.118Z,0.63
2019-02-11T01:55:17.653Z,0.37
2019-02-11T01:57:55.180Z,0.40
2019-02-11T02:00:32.714Z,0.30
2019-02-11T02:03:10.235Z,0.40
2019-02-11T02:05:47.776Z,0.40
2019-02-11T02:08:25.303Z,0.30
2019-02-11T02:11:02.878Z,0.40
2019-02-11T02:13:44.762Z,1.20
2019-02-11T02:16:17.929Z,0.40
2019-02-11T02:18:55.450Z,0.27
2019-02-11T02:21:33.001Z,0.50
2019-02-11T02:24:10.503Z,0.33
2019-02-11T02:26:48.038Z,0.43
2019-02-11T02:29:25.563Z,0.40
2019-02-11T02:32:03.089Z,0.40
2019-02-11T02:34:40.624Z,0.63
2019-02-11T02:37:18.165Z,0.40
2019-02-11T02:39:55.748Z,1.43
2019-02-11T02:42:33.213Z,0.50
2019-02-11T02:45:11.374Z,0.60
2019-02-11T02:47:48.906Z,0.50
2019-02-11T02:50:26.431Z,0.70
2019-02-11T02:53:03.969Z,0.70
2019-02-11T02:55:41.520Z,0.57
2019-02-11T02:58:19.024Z,2.00
2019-02-11T03:00:57.668Z,0.67
2019-02-11T03:03:35.206Z,1.00
2019-02-11T03:06:12.752Z,0.80
2019-02-11T03:08:50.263Z,0.70
2019-02-11T03:11:27.800Z,0.93
2019-02-11T03:14:06.277Z,0.70
2019-02-11T03:16:42.868Z,1.03
2019-02-11T03:19:20.369Z,1.00
2019-02-11T03:21:57.916Z,2.80
2019-02-11T03:24:35.417Z,0.87
2019-02-11T03:27:12.978Z,2.47
2019-02-11T03:29:50.476Z,1.73
2019-02-11T03:32:28.074Z,3.53
2019-02-11T03:35:05.645Z,2.70
2019-02-11T03:37:43.179Z,3.43
2019-02-11T03:40:20.690Z,3.53
2019-02-11T03:42:58.228Z,1.93
2019-02-11T03:45:35.756Z,3.13
2019-02-11T03:48:13.313Z,1.87
2019-02-11T03:50:50.818Z,3.07
2019-02-11T03:53:28.429Z,5.97
2019-02-11T03:56:05.930Z,4.37
2019-02-11T03:58:43.491Z,3.00
2019-02-11T04:01:21.038Z,5.27
2019-02-11T04:03:58.593Z,1.90
2019-02-11T04:06:36.116Z,2.97
2019-02-11T04:09:13.641Z,1.77
2019-02-11T04:11:51.183Z,3.10
2019-02-11T04:14:28.687Z,2.13
2019-02-11T04:17:06.230Z,2.67
2019-02-11T04:19:43.759Z,4.17
2019-02-11T04:22:21.789Z,5.10
2019-02-11T04:24:59.304Z,5.40
2019-02-11T04:27:36.852Z,6.60
2019-02-11T04:30:14.376Z,6.00
2019-02-11T04:32:51.942Z,4.27
2019-02-11T04:35:29.450Z,6.10
2019-02-11T04:38:06.992Z,4.37
2019-02-11T04:40:44.514Z,6.23
2019-02-11T04:43:22.086Z,6.20
2019-02-11T04:45:59.601Z,8.30
2019-02-11T04:48:37.157Z,6.87
2019-02-11T04:51:14.716Z,4.33
2019-02-11T04:53:52.257Z,4.13
2019-02-11T04:56:29.799Z,7.90
2019-02-11T04:59:07.337Z,6.80
2019-02-11T05:01:44.868Z,8.33
2019-02-11T05:04:22.363Z,8.80
2019-02-11T05:06:59.914Z,8.37
2019-02-11T05:09:37.435Z,8.27
2019-02-11T05:12:14.961Z,7.97
2019-02-11T05:14:52.495Z,7.57
2019-02-11T05:17:30.045Z,7.30
2019-02-11T05:20:08.277Z,7.50
2019-02-11T05:22:45.834Z,7.07
2019-02-11T05:25:23.347Z,6.23
2019-02-11T05:28:00.930Z,5.03
2019-02-11T05:30:38.457Z,5.10
2019-02-11T05:33:16.062Z,6.20
2019-02-11T05:35:56.426Z,10.50
2019-02-11T05:38:36.786Z,7.10
2019-02-11T05:41:14.300Z,8.00
2019-02-11T05:43:51.841Z,9.80
2019-02-11T05:46:32.881Z,5.83
2019-02-11T05:49:10.534Z,9.77
2019-02-11T05:51:48.047Z,5.73
2019-02-11T05:54:25.597Z,5.83
2019-02-11T05:57:03.130Z,14.43
2019-02-11T05:59:40.650Z,5.80
2019-02-11T06:02:18.359Z,8.80
2019-02-11T06:04:55.937Z,8.80
2019-02-11T06:07:33.473Z,4.27
2019-02-11T06:10:11.385Z,10.03
2019-02-11T06:12:48.907Z,10.87
2019-02-11T06:15:26.426Z,8.17
2019-02-11T06:18:03.944Z,13.20
2019-02-11T06:20:41.480Z,7.60
2019-02-11T06:23:19.035Z,9.80
2019-02-11T06:25:56.559Z,7.03
2019-02-11T06:28:34.106Z,5.53
2019-02-11T06:31:11.615Z,5.97
2019-02-11T06:33:49.179Z,5.10
2019-02-11T06:36:26.700Z,8.00
2019-02-11T06:39:04.320Z,7.23
2019-02-11T06:41:41.847Z,4.17
2019-02-11T06:44:19.425Z,6.60
2019-02-11T06:46:56.969Z,4.70
2019-02-11T06:49:34.545Z,4.57
2019-02-11T06:52:12.089Z,7.03
2019-02-11T06:54:49.652Z,6.90
2019-02-11T06:57:27.150Z,4.23
2019-02-11T07:00:04.693Z,9.00
2019-02-11T07:02:42.243Z,6.87
2019-02-11T07:05:19.778Z,10.87
2019-02-11T07:07:57.326Z,8.67
2019-02-11T07:10:34.855Z,7.80
2019-02-11T07:13:12.441Z,7.43
2019-02-11T07:15:49.925Z,9.43
2019-02-11T07:18:27.481Z,5.40
2019-02-11T07:21:05.008Z,9.80
2019-02-11T07:23:42.884Z,5.07
2019-02-11T07:26:20.400Z,5.40
2019-02-11T07:28:57.931Z,7.37
2019-02-11T07:31:35.450Z,3.87
2019-02-11T07:34:13.016Z,8.57
2019-02-11T07:36:50.552Z,4.77
2019-02-11T07:39:28.109Z,4.77
2019-02-11T07:42:27.163Z,11.73
2019-02-11T07:45:08.752Z,8.63
2019-02-11T07:47:46.265Z,5.27
2019-02-11T07:50:23.830Z,8.43
2019-02-11T07:53:01.364Z,6.77
2019-02-11T07:55:38.894Z,6.70
2019-02-11T07:58:16.429Z,2.80
2019-02-11T08:00:53.969Z,6.83
2019-02-11T08:03:31.502Z,8.17
2019-02-11T08:06:09.239Z,7.17
2019-02-11T08:08:46.575Z,9.73
2019-02-11T08:11:24.070Z,5.10
2019-02-11T08:14:01.639Z,7.60
2019-02-11T08:16:39.157Z,8.03
2019-02-11T08:19:16.697Z,11.27
2019-02-11T08:21:54.218Z,3.43
2019-02-11T08:24:31.750Z,5.50
2019-02-11T08:27:09.270Z,7.87
2019-02-11T08:29:46.821Z,5.80
2019-02-11T08:32:24.345Z,7.87
2019-02-11T08:35:01.933Z,5.20
2019-02-11T08:37:39.491Z,6.57
2019-02-11T08:40:17.035Z,10.80
2019-02-11T08:42:54.545Z,9.13
2019-02-11T08:45:32.112Z,4.57
2019-02-11T08:48:09.628Z,10.00
2019-02-11T08:50:56.537Z,6.10
2019-02-11T08:53:34.080Z,8.40
2019-02-11T08:56:11.635Z,5.00
2019-02-11T08:58:49.162Z,7.63
2019-02-11T09:01:26.703Z,5.17
2019-02-11T09:04:04.230Z,10.07
2019-02-11T09:06:41.776Z,7.67
2019-02-11T09:09:19.316Z,6.17
2019-02-11T09:11:56.858Z,8.87
2019-02-11T09:14:37.158Z,5.60
2019-02-11T09:17:14.671Z,7.30
2019-02-11T09:19:52.241Z,9.30
2019-02-11T09:22:29.762Z,9.80
2019-02-11T09:25:08.084Z,7.13
2019-02-11T09:27:45.609Z,9.43
2019-02-11T09:30:23.152Z,11.83
2019-02-11T09:33:00.738Z,7.70
2019-02-11T09:35:38.279Z,11.53
2019-02-11T09:38:15.791Z,9.37
2019-02-11T09:40:53.318Z,7.57
2019-02-11T09:43:30.850Z,7.83
2019-02-11T09:46:08.378Z,8.93
2019-02-11T09:48:45.912Z,12.67
2019-02-11T09:51:24.703Z,10.87
2019-02-11T09:54:02.239Z,11.60
2019-02-11T09:56:39.743Z,11.17
2019-02-11T09:59:17.318Z,8.10
2019-02-11T10:01:54.844Z,9.50
2019-02-11T10:04:32.381Z,11.67
2019-02-11T10:07:09.900Z,7.07
2019-02-11T10:09:47.964Z,9.73
2019-02-11T10:12:25.003Z,11.10
2019-02-11T10:15:02.652Z,13.20
2019-02-11T10:17:40.104Z,10.93
2019-02-11T10:20:17.661Z,10.32
2019-02-11T10:22:55.193Z,11.13
2019-02-11T10:25:32.875Z,10.13
2019-02-11T10:28:13.759Z,12.50
2019-02-11T10:30:51.328Z,7.03
2019-02-11T10:33:28.895Z,10.30
2019-02-11T10:36:06.479Z,6.27
2019-02-11T10:38:43.997Z,8.63
2019-02-11T10:41:22.092Z,5.60
2019-02-11T10:43:59.637Z,3.93
2019-02-11T10:46:37.267Z,5.57
2019-02-11T10:49:14.824Z,4.57
2019-02-11T10:51:52.393Z,4.33
2019-02-11T10:54:29.965Z,6.73
2019-02-11T10:57:07.491Z,3.83
2019-02-11T10:59:45.054Z,4.27
2019-02-11T11:02:22.571Z,5.47
2019-02-11T11:05:00.297Z,3.40
2019-02-11T11:07:37.698Z,3.37
2019-02-11T11:10:19.596Z,3.67
2019-02-11T11:12:57.146Z,7.70
2019-02-11T11:15:34.691Z,5.57
2019-02-11T11:18:12.237Z,7.03
2019-02-11T11:20:49.780Z,8.27
2019-02-11T11:23:27.282Z,5.83
2019-02-11T11:26:04.834Z,4.83
2019-02-11T11:28:42.355Z,4.33
2019-02-11T11:31:19.893Z,5.43
2019-02-11T11:33:57.440Z,6.07
2019-02-11T11:36:35.016Z,5.93
2019-02-11T11:39:31.180Z,10.63
2019-02-11T11:42:08.734Z,3.60
2019-02-11T11:44:46.276Z,6.40
2019-02-11T11:47:23.866Z,5.67
2019-02-11T11:50:01.426Z,9.70
2019-02-11T11:52:38.961Z,5.70
2019-02-11T11:55:17.169Z,10.33
2019-02-11T11:57:54.648Z,8.77
2019-02-11T12:00:32.506Z,10.97
2019-02-11T12:03:10.054Z,14.10
2019-02-11T12:05:47.628Z,17.10
2019-02-11T12:08:25.162Z,14.53
2019-02-11T12:11:02.787Z,15.00
2019-02-11T12:13:40.309Z,14.93
2019-02-11T12:16:17.882Z,8.30
2019-02-11T12:18:55.451Z,12.33
2019-02-11T12:21:34.002Z,15.83
2019-02-11T12:24:11.553Z,13.70
2019-02-11T12:26:49.136Z,16.30
2019-02-11T12:29:26.708Z,14.47
2019-02-11T12:32:04.275Z,21.87
2019-02-11T12:34:41.837Z,15.07
2019-02-11T12:37:19.391Z,22.10
2019-02-11T12:39:56.904Z,25.30
2019-02-11T12:42:34.496Z,17.20
2019-02-11T12:45:18.334Z,13.57
2019-02-11T12:47:55.859Z,21.23
2019-02-11T12:50:33.429Z,19.10
2019-02-11T12:53:10.951Z,16.03
2019-02-11T12:55:48.498Z,15.27
2019-02-11T12:58:26.084Z,14.23
2019-02-11T13:01:03.637Z,15.63
2019-02-11T13:03:41.129Z,19.33
2019-02-11T13:06:18.658Z,9.57
2019-02-11T13:08:56.201Z,18.97
2019-02-11T13:11:33.727Z,15.73
2019-02-11T13:14:11.236Z,15.03
2019-02-11T13:16:48.810Z,22.17
2019-02-11T13:19:26.306Z,16.17
2019-02-11T13:22:03.840Z,17.70
2019-02-11T13:24:41.381Z,16.47
2019-02-11T13:27:18.950Z,18.33
2019-02-11T13:29:56.525Z,15.60
2019-02-11T13:32:34.083Z,24.17
2019-02-11T13:35:11.617Z,13.63
2019-02-11T13:37:49.191Z,19.07
2019-02-11T13:40:26.716Z,13.73
2019-02-11T13:43:04.297Z,13.00
2019-02-11T13:45:41.909Z,19.00
2019-02-11T13:48:19.460Z,14.47
2019-02-11T13:50:57.062Z,17.83
2019-02-11T13:53:34.656Z,26.97
2019-02-11T13:56:12.251Z,15.97
2019-02-11T13:58:52.174Z,16.87
2019-02-11T14:01:27.320Z,14.07
2019-02-11T14:04:04.882Z,19.93
2019-02-11T14:06:42.426Z,14.70
2019-02-11T14:09:19.929Z,13.57
2019-02-11T14:11:57.498Z,19.10
2019-02-11T14:14:35.274Z,22.67
2019-02-11T14:17:12.840Z,18.67
2019-02-11T14:19:50.362Z,17.50
2019-02-11T14:22:27.970Z,13.37
2019-02-11T14:25:05.547Z,15.37
2019-02-11T14:27:43.141Z,14.03
2019-02-11T14:30:22.118Z,12.57
2019-02-11T14:32:59.715Z,13.17
2019-02-11T14:35:37.258Z,10.47
2019-02-11T14:38:14.877Z,15.90
2019-02-11T14:40:52.422Z,16.97
2019-02-11T14:43:30.021Z,9.40
2019-02-11T14:46:07.592Z,10.23
2019-02-11T14:48:45.179Z,14.67
2019-02-11T14:51:22.757Z,13.93
2019-02-11T14:54:00.330Z,14.27
2019-02-11T14:56:37.895Z,18.50
2019-02-11T14:59:15.432Z,14.20
2019-02-11T15:01:53.039Z,6.50
2019-02-11T15:04:30.610Z,3.27
2019-02-11T15:07:08.216Z,5.27
2019-02-11T15:09:45.727Z,3.40
2019-02-11T15:12:23.267Z,2.67
2019-02-11T15:15:00.817Z,1.83
2019-02-11T15:17:38.594Z,3.90
2019-02-11T15:20:17.071Z,2.97
2019-02-11T15:22:54.647Z,3.27
2019-02-11T15:25:32.195Z,2.43
2019-02-11T15:28:09.770Z,3.47
2019-02-11T15:30:47.298Z,5.87
2019-02-11T15:33:24.830Z,4.83
2019-02-11T15:36:02.381Z,4.20
2019-02-11T15:38:39.983Z,4.30
2019-02-11T15:41:17.537Z,4.53
2019-02-11T15:43:55.115Z,4.57
2019-02-11T15:46:32.679Z,7.57
2019-02-11T15:49:10.223Z,3.87
2019-02-11T15:51:47.853Z,6.20
2019-02-11T15:54:25.396Z,4.70
2019-02-11T15:57:03.939Z,7.43
2019-02-11T15:59:42.245Z,5.63
2019-02-11T16:02:19.811Z,6.07
2019-02-11T16:05:02.425Z,12.97
2019-02-11T16:07:34.913Z,5.10
2019-02-11T16:10:14.932Z,7.37
2019-02-11T16:12:52.464Z,11.53
2019-02-11T16:15:30.021Z,7.37
2019-02-11T16:18:07.552Z,9.53
2019-02-11T16:20:45.142Z,5.97
2019-02-11T16:23:22.630Z,13.13
2019-02-11T16:26:00.157Z,11.73
2019-02-11T16:28:37.745Z,12.13
2019-02-11T16:31:15.255Z,10.20
2019-02-11T16:33:52.840Z,11.50
2019-02-11T16:36:30.365Z,9.43
2019-02-11T16:39:08.489Z,10.73
2019-02-11T16:41:46.016Z,9.57
2019-02-11T16:44:23.556Z,10.27
2019-02-11T16:47:01.103Z,12.70
2019-02-11T16:49:39.420Z,9.73
2019-02-11T16:52:19.799Z,8.80
2019-02-11T16:55:08.934Z,11.10
2019-02-11T16:57:46.537Z,10.43
2019-02-11T17:00:24.107Z,12.27
2019-02-11T17:03:01.682Z,18.87
2019-02-11T17:05:39.209Z,10.80
2019-02-11T17:08:16.767Z,16.50
2019-02-11T17:10:54.322Z,17.73
2019-02-11T17:13:31.888Z,23.30
2019-02-11T17:16:09.471Z,31.30
2019-02-11T17:18:47.103Z,17.43
2019-02-11T17:21:24.642Z,19.97
2019-02-11T17:24:02.254Z,18.17
2019-02-11T17:26:39.830Z,16.90
2019-02-11T17:29:17.419Z,21.37
2019-02-11T17:31:55.017Z,23.43
2019-02-11T17:34:32.611Z,20.83
2019-02-11T17:37:10.126Z,19.67
2019-02-11T17:39:47.712Z,30.60
2019-02-11T17:42:25.329Z,15.17
2019-02-11T17:45:03.214Z,24.90
2019-02-11T17:47:41.804Z,22.30
2019-02-11T17:50:19.376Z,27.33
2019-02-11T17:52:57.992Z,20.77
2019-02-11T17:55:35.606Z,24.30
2019-02-11T17:58:13.173Z,22.83
2019-02-11T18:00:53.339Z,19.80
2019-02-11T18:03:30.926Z,22.20
2019-02-11T18:06:08.455Z,21.40
2019-02-11T18:08:46.057Z,22.37
2019-02-11T18:11:23.618Z,26.43
2019-02-11T18:14:01.219Z,18.13
2019-02-11T18:16:40.358Z,24.17
2019-02-11T18:19:25.777Z,22.20
2019-02-11T18:21:55.461Z,22.70
2019-02-11T18:24:33.303Z,31.77
2019-02-11T18:27:11.072Z,19.30
2019-02-11T18:29:48.809Z,24.13
2019-02-11T18:32:26.419Z,28.63
2019-02-11T18:35:03.978Z,14.93
2019-02-11T18:37:41.542Z,19.60
2019-02-11T18:40:19.117Z,22.60
2019-02-11T18:42:56.642Z,22.20
2019-02-11T18:45:34.212Z,22.30
2019-02-11T18:48:11.761Z,21.70
2019-02-11T18:50:49.709Z,29.37
2019-02-11T18:53:27.298Z,24.40
2019-02-11T18:56:04.833Z,18.93
2019-02-11T18:58:42.552Z,23.67
2019-02-11T19:01:20.259Z,25.00
2019-02-11T19:03:57.925Z,29.27
2019-02-11T19:06:35.555Z,24.10
2019-02-11T19:09:16.125Z,24.80
2019-02-11T19:11:53.694Z,21.83
2019-02-11T19:14:31.274Z,17.77
2019-02-11T19:17:08.794Z,23.00
2019-02-11T19:19:46.346Z,21.33
2019-02-11T19:22:23.881Z,28.50
2019-02-11T19:25:01.445Z,20.67
2019-02-11T19:27:38.977Z,21.83
2019-02-11T19:30:20.966Z,21.70
2019-02-11T19:32:57.765Z,18.63
2019-02-11T19:35:35.311Z,24.20
2019-02-11T19:38:12.810Z,25.63
2019-02-11T19:40:50.365Z,15.87
2019-02-11T19:43:27.886Z,21.77
2019-02-11T19:46:05.460Z,27.73
2019-02-11T19:48:43.042Z,18.03
2019-02-11T19:51:20.675Z,16.13
2019-02-11T19:53:58.266Z,23.57
2019-02-11T19:56:35.803Z,21.00
2019-02-11T19:59:13.453Z,29.20
2019-02-11T20:01:51.072Z,15.80
2019-02-11T20:04:28.660Z,26.13
2019-02-11T20:07:06.297Z,24.90
2019-02-11T20:09:43.918Z,22.50
2019-02-11T20:12:21.461Z,23.17
2019-02-11T20:14:59.011Z,24.23
2019-02-11T20:17:36.561Z,25.30
2019-02-11T20:20:16.564Z,24.17
2019-02-11T20:22:54.178Z,22.27
2019-02-11T20:25:31.783Z,24.37
2019-02-11T20:28:09.314Z,21.47
2019-02-11T20:30:46.913Z,21.87
2019-02-11T20:33:24.385Z,22.73
2019-02-11T20:36:01.930Z,20.03
2019-02-11T20:38:39.455Z,14.63
2019-02-11T20:41:16.994Z,14.33
2019-02-11T20:43:54.498Z,23.97
2019-02-11T20:46:32.037Z,16.70
2019-02-11T20:49:10.219Z,16.30
2019-02-11T20:51:48.970Z,21.17
2019-02-11T20:54:26.510Z,18.23
2019-02-11T20:57:04.012Z,20.93
2019-02-11T20:59:41.575Z,21.63
2019-02-11T21:02:19.068Z,18.20
2019-02-11T21:04:56.611Z,15.17
2019-02-11T21:07:34.154Z,17.23
2019-02-11T21:10:13.416Z,15.43
2019-02-11T21:12:50.912Z,22.07
2019-02-11T21:15:28.459Z,24.50
2019-02-11T21:18:05.971Z,20.90
2019-02-11T21:20:43.671Z,17.77
2019-02-11T21:23:21.180Z,16.07
2019-02-11T21:25:58.721Z,13.13
2019-02-11T21:28:36.235Z,22.03
2019-02-11T21:31:13.758Z,14.77
2019-02-11T21:33:51.275Z,21.63
2019-02-11T21:36:28.841Z,21.03
2019-02-11T21:39:06.364Z,17.60
2019-02-11T21:41:43.897Z,15.70
2019-02-11T21:44:21.392Z,12.63
2019-02-11T21:46:58.936Z,16.27
2019-02-11T21:49:36.487Z,21.20
2019-02-11T21:52:14.121Z,16.63
2019-02-11T21:54:51.660Z,24.77
2019-02-11T21:57:29.177Z,13.70
2019-02-11T22:00:07.184Z,14.83
2019-02-11T22:02:44.701Z,20.17
2019-02-11T22:05:22.225Z,28.60
2019-02-11T22:07:59.737Z,16.73
2019-02-11T22:10:37.268Z,19.80
2019-02-11T22:13:14.773Z,18.10
2019-02-11T22:15:52.294Z,19.03
2019-02-11T22:18:29.797Z,23.77
2019-02-11T22:21:07.357Z,13.40
2019-02-11T22:23:44.881Z,26.20
2019-02-11T22:26:22.429Z,21.87
2019-02-11T22:28:59.946Z,19.27
2019-02-11T22:31:37.467Z,21.43
2019-02-11T22:34:15.013Z,16.10
2019-02-11T22:36:52.561Z,13.37
2019-02-11T22:39:30.073Z,15.80
2019-02-11T22:42:07.622Z,16.47
2019-02-11T22:44:45.132Z,19.17
2019-02-11T22:47:22.669Z,14.57
2019-02-11T22:50:00.315Z,10.77
2019-02-11T22:52:37.724Z,14.97
2019-02-11T22:55:15.271Z,17.53
2019-02-11T22:57:52.782Z,12.10
2019-02-11T23:00:58.350Z,13.13
2019-02-11T23:03:37.355Z,18.00
2019-02-11T23:06:14.885Z,13.80
2019-02-11T23:08:52.393Z,10.20
2019-02-11T23:11:29.930Z,11.20
2019-02-11T23:14:07.442Z,14.70
2019-02-11T23:16:44.994Z,12.03
2019-02-11T23:19:22.470Z,11.03
2019-02-11T23:22:00.014Z,18.67
2019-02-11T23:24:37.522Z,17.17
2019-02-11T23:27:15.065Z,16.67
2019-02-11T23:29:52.578Z,13.80
2019-02-11T23:32:30.107Z,13.40
2019-02-11T23:35:07.734Z,22.00
2019-02-11T23:37:45.240Z,14.90
2019-02-11T23:40:22.752Z,18.33
2019-02-11T23:43:00.273Z,17.43
2019-02-11T23:45:37.802Z,10.20
2019-02-11T23:48:15.296Z,20.07
2019-02-11T23:51:00.233Z,17.03
2019-02-11T23:53:30.351Z,15.10
2019-02-11T23:56:07.877Z,11.77
2019-02-11T23:58:45.392Z,10.87
